sensor_id;sensor_type;location;lat;lon;timestamp;pressure;altitude;pressure_sealevel;temperature;humidity
21290;BME280;10804;48.988;2.408;2023-05-24T00:01:42;101627.88;;;17.47;59.96
21290;BME280;10804;48.988;2.408;2023-05-24T00:04:09;101629.00;;;17.41;59.95
21290;BME280;10804;48.988;2.408;2023-05-24T00:06:37;101620.34;;;17.38;60.09
21290;BME280;10804;48.988;2.408;2023-05-24T00:09:04;101619.53;;;17.36;59.86
21290;BME280;10804;48.988;2.408;2023-05-24T00:11:33;101622.16;;;17.36;59.95
21290;BME280;10804;48.988;2.408;2023-05-24T00:14:00;101617.91;;;17.32;60.02
21290;BME280;10804;48.988;2.408;2023-05-24T00:16:28;101610.91;;;17.31;60.24
21290;BME280;10804;48.988;2.408;2023-05-24T00:18:55;101612.75;;;17.29;60.03
21290;BME280;10804;48.988;2.408;2023-05-24T00:21:24;101616.44;;;17.25;60.01
21290;BME280;10804;48.988;2.408;2023-05-24T00:23:51;101613.78;;;17.25;60.07
21290;BME280;10804;48.988;2.408;2023-05-24T00:26:18;101601.59;;;17.22;60.11
21290;BME280;10804;48.988;2.408;2023-05-24T00:28:53;101610.44;;;17.21;60.12
21290;BME280;10804;48.988;2.408;2023-05-24T00:31:21;101588.59;;;17.18;60.04
21290;BME280;10804;48.988;2.408;2023-05-24T00:33:49;101590.41;;;17.16;60.27
21290;BME280;10804;48.988;2.408;2023-05-24T00:36:18;101587.13;;;17.11;60.15
21290;BME280;10804;48.988;2.408;2023-05-24T00:38:47;101584.50;;;17.11;60.24
21290;BME280;10804;48.988;2.408;2023-05-24T00:41:15;101586.38;;;17.07;60.19
21290;BME280;10804;48.988;2.408;2023-05-24T00:43:43;101579.41;;;17.06;60.25
21290;BME280;10804;48.988;2.408;2023-05-24T00:46:17;101591.84;;;17.03;60.23
21290;BME280;10804;48.988;2.408;2023-05-24T00:48:48;101586.56;;;17.03;60.32
21290;BME280;10804;48.988;2.408;2023-05-24T00:51:17;101581.38;;;17.00;60.19
21290;BME280;10804;48.988;2.408;2023-05-24T00:53:46;101576.13;;;17.00;60.27
21290;BME280;10804;48.988;2.408;2023-05-24T00:56:15;101578.94;;;16.95;60.28
21290;BME280;10804;48.988;2.408;2023-05-24T00:58:43;101584.25;;;16.94;60.36
21290;BME280;10804;48.988;2.408;2023-05-24T01:01:11;101569.44;;;16.91;60.29
21290;BME280;10804;48.988;2.408;2023-05-24T01:03:40;101578.25;;;16.90;60.33
21290;BME280;10804;48.988;2.408;2023-05-24T01:06:08;101570.47;;;16.87;60.37
21290;BME280;10804;48.988;2.408;2023-05-24T01:08:47;101577.63;;;16.84;60.39
21290;BME280;10804;48.988;2.408;2023-05-24T01:11:28;101584.72;;;16.82;60.50
21290;BME280;10804;48.988;2.408;2023-05-24T01:14:05;101583.81;;;16.83;60.44
21290;BME280;10804;48.988;2.408;2023-05-24T01:16:44;101577.81;;;16.79;60.34
21290;BME280;10804;48.988;2.408;2023-05-24T01:19:39;101584.00;;;16.78;60.41
21290;BME280;10804;48.988;2.408;2023-05-24T01:22:16;101571.75;;;16.77;60.43
21290;BME280;10804;48.988;2.408;2023-05-24T01:24:54;101580.66;;;16.73;60.42
21290;BME280;10804;48.988;2.408;2023-05-24T01:27:29;101583.28;;;16.73;60.59
21290;BME280;10804;48.988;2.408;2023-05-24T01:29:58;101576.44;;;16.69;60.51
21290;BME280;10804;48.988;2.408;2023-05-24T01:32:27;101588.84;;;16.66;60.42
21290;BME280;10804;48.988;2.408;2023-05-24T01:34:54;101584.50;;;16.65;60.62
21290;BME280;10804;48.988;2.408;2023-05-24T01:37:21;101593.44;;;16.61;60.59
21290;BME280;10804;48.988;2.408;2023-05-24T01:39:49;101606.53;;;16.62;60.39
21290;BME280;10804;48.988;2.408;2023-05-24T01:42:23;101603.16;;;16.59;60.52
21290;BME280;10804;48.988;2.408;2023-05-24T01:45:10;101605.00;;;16.57;60.58
21290;BME280;10804;48.988;2.408;2023-05-24T01:47:48;101598.06;;;16.54;60.63
21290;BME280;10804;48.988;2.408;2023-05-24T01:50:22;101583.34;;;16.49;60.61
21290;BME280;10804;48.988;2.408;2023-05-24T01:52:51;101596.53;;;16.49;60.55
21290;BME280;10804;48.988;2.408;2023-05-24T01:55:19;101596.53;;;16.49;60.64
21290;BME280;10804;48.988;2.408;2023-05-24T01:57:49;101598.31;;;16.47;60.56
21290;BME280;10804;48.988;2.408;2023-05-24T02:00:20;101586.19;;;16.43;60.69
21290;BME280;10804;48.988;2.408;2023-05-24T02:02:49;101591.47;;;16.43;60.53
21290;BME280;10804;48.988;2.408;2023-05-24T02:05:17;101595.94;;;16.41;60.67
21290;BME280;10804;48.988;2.408;2023-05-24T02:07:44;101604.69;;;16.41;60.63
21290;BME280;10804;48.988;2.408;2023-05-24T02:10:14;101600.38;;;16.39;60.59
21290;BME280;10804;48.988;2.408;2023-05-24T02:12:42;101596.13;;;16.35;60.55
21290;BME280;10804;48.988;2.408;2023-05-24T02:15:10;101598.84;;;16.32;60.63
21290;BME280;10804;48.988;2.408;2023-05-24T02:17:44;101591.00;;;16.30;60.74
21290;BME280;10804;48.988;2.408;2023-05-24T02:20:13;101597.13;;;16.31;60.71
21290;BME280;10804;48.988;2.408;2023-05-24T02:22:45;101597.16;;;16.29;60.78
21290;BME280;10804;48.988;2.408;2023-05-24T02:25:12;101592.91;;;16.27;60.70
21290;BME280;10804;48.988;2.408;2023-05-24T02:27:40;101596.50;;;16.24;60.73
21290;BME280;10804;48.988;2.408;2023-05-24T02:30:14;101595.63;;;16.24;60.87
21290;BME280;10804;48.988;2.408;2023-05-24T02:32:43;101598.31;;;16.22;60.74
21290;BME280;10804;48.988;2.408;2023-05-24T02:35:11;101597.56;;;16.19;60.68
21290;BME280;10804;48.988;2.408;2023-05-24T02:37:39;101592.34;;;16.17;60.75
21290;BME280;10804;48.988;2.408;2023-05-24T02:40:07;101591.47;;;16.17;60.70
21290;BME280;10804;48.988;2.408;2023-05-24T02:42:35;101590.78;;;16.12;60.64
21290;BME280;10804;48.988;2.408;2023-05-24T02:45:02;101579.34;;;16.13;60.88
21290;BME280;10804;48.988;2.408;2023-05-24T02:47:30;101577.69;;;16.10;60.82
21290;BME280;10804;48.988;2.408;2023-05-24T02:49:59;101575.97;;;16.09;60.89
21290;BME280;10804;48.988;2.408;2023-05-24T02:52:26;101576.94;;;16.07;60.86
21290;BME280;10804;48.988;2.408;2023-05-24T02:54:53;101565.63;;;16.03;60.85
21290;BME280;10804;48.988;2.408;2023-05-24T02:57:21;101569.94;;;16.06;60.89
21290;BME280;10804;48.988;2.408;2023-05-24T02:59:49;101570.91;;;16.03;60.75
21290;BME280;10804;48.988;2.408;2023-05-24T03:02:18;101564.03;;;15.99;60.88
21290;BME280;10804;48.988;2.408;2023-05-24T03:04:47;101568.44;;;15.99;60.88
21290;BME280;10804;48.988;2.408;2023-05-24T03:07:15;101571.19;;;15.96;60.91
21290;BME280;10804;48.988;2.408;2023-05-24T03:09:43;101575.63;;;15.94;60.86
21290;BME280;10804;48.988;2.408;2023-05-24T03:12:10;101579.16;;;15.93;60.80
21290;BME280;10804;48.988;2.408;2023-05-24T03:14:37;101568.72;;;15.91;60.96
21290;BME280;10804;48.988;2.408;2023-05-24T03:17:05;101579.31;;;15.88;60.94
21290;BME280;10804;48.988;2.408;2023-05-24T03:19:34;101562.75;;;15.86;60.95
21290;BME280;10804;48.988;2.408;2023-05-24T03:22:02;101562.75;;;15.86;60.81
21290;BME280;10804;48.988;2.408;2023-05-24T03:24:31;101559.34;;;15.83;60.90
21290;BME280;10804;48.988;2.408;2023-05-24T03:26:59;101563.81;;;15.81;60.89
21290;BME280;10804;48.988;2.408;2023-05-24T03:29:27;101565.56;;;15.80;60.79
21290;BME280;10804;48.988;2.408;2023-05-24T03:31:55;101568.31;;;15.77;60.95
21290;BME280;10804;48.988;2.408;2023-05-24T03:34:22;101570.03;;;15.78;61.00
21290;BME280;10804;48.988;2.408;2023-05-24T03:36:49;101574.41;;;15.78;60.86
21290;BME280;10804;48.988;2.408;2023-05-24T03:39:17;101576.34;;;15.73;61.00
21290;BME280;10804;48.988;2.408;2023-05-24T03:42:00;101565.88;;;15.72;61.00
21290;BME280;10804;48.988;2.408;2023-05-24T03:44:28;101574.59;;;15.72;60.99
21290;BME280;10804;48.988;2.408;2023-05-24T03:46:55;101578.28;;;15.68;60.94
21290;BME280;10804;48.988;2.408;2023-05-24T03:49:23;101576.59;;;15.66;61.10
21290;BME280;10804;48.988;2.408;2023-05-24T03:51:51;101576.63;;;15.64;60.99
21290;BME280;10804;48.988;2.408;2023-05-24T03:54:19;101573.97;;;15.66;60.94
21290;BME280;10804;48.988;2.408;2023-05-24T03:56:46;101580.19;;;15.63;60.97
21290;BME280;10804;48.988;2.408;2023-05-24T03:59:15;101579.38;;;15.61;60.81
21290;BME280;10804;48.988;2.408;2023-05-24T04:01:42;101589.94;;;15.60;60.94
21290;BME280;10804;48.988;2.408;2023-05-24T04:04:10;101586.50;;;15.58;60.86
21290;BME280;10804;48.988;2.408;2023-05-24T04:06:37;101584.78;;;15.57;61.04
21290;BME280;10804;48.988;2.408;2023-05-24T04:09:06;101590.97;;;15.56;61.20
21290;BME280;10804;48.988;2.408;2023-05-24T04:11:35;101585.75;;;15.54;61.11
21290;BME280;10804;48.988;2.408;2023-05-24T04:14:02;101589.28;;;15.53;60.88
21290;BME280;10804;48.988;2.408;2023-05-24T04:16:32;101591.13;;;15.51;61.01
21290;BME280;10804;48.988;2.408;2023-05-24T04:18:59;101592.06;;;15.49;61.08
21290;BME280;10804;48.988;2.408;2023-05-24T04:21:29;101597.31;;;15.49;61.10
21290;BME280;10804;48.988;2.408;2023-05-24T04:23:57;101603.50;;;15.48;61.19
21290;BME280;10804;48.988;2.408;2023-05-24T04:26:26;101600.09;;;15.44;61.05
21290;BME280;10804;48.988;2.408;2023-05-24T04:28:54;101606.28;;;15.43;61.00
21290;BME280;10804;48.988;2.408;2023-05-24T04:31:23;101604.63;;;15.39;60.81
21290;BME280;10804;48.988;2.408;2023-05-24T04:33:52;101609.84;;;15.41;61.07
21290;BME280;10804;48.988;2.408;2023-05-24T04:36:20;101621.22;;;15.41;61.08
21290;BME280;10804;48.988;2.408;2023-05-24T04:38:51;101621.28;;;15.40;61.01
21290;BME280;10804;48.988;2.408;2023-05-24T04:41:21;101626.56;;;15.38;61.13
21290;BME280;10804;48.988;2.408;2023-05-24T04:43:49;101629.09;;;15.41;61.02
21290;BME280;10804;48.988;2.408;2023-05-24T04:46:16;101624.91;;;15.36;61.01
21290;BME280;10804;48.988;2.408;2023-05-24T04:48:44;101637.13;;;15.37;61.02
21290;BME280;10804;48.988;2.408;2023-05-24T04:51:12;101630.22;;;15.34;60.99
21290;BME280;10804;48.988;2.408;2023-05-24T04:53:39;101626.72;;;15.34;60.96
21290;BME280;10804;48.988;2.408;2023-05-24T04:56:08;101626.75;;;15.32;61.01
21290;BME280;10804;48.988;2.408;2023-05-24T04:58:35;101633.81;;;15.30;61.00
21290;BME280;10804;48.988;2.408;2023-05-24T05:01:02;101628.53;;;15.30;61.06
21290;BME280;10804;48.988;2.408;2023-05-24T05:03:29;101633.03;;;15.27;61.13
21290;BME280;10804;48.988;2.408;2023-05-24T05:05:57;101632.16;;;15.26;61.05
21290;BME280;10804;48.988;2.408;2023-05-24T05:08:26;101632.16;;;15.26;60.96
21290;BME280;10804;48.988;2.408;2023-05-24T05:10:53;101626.03;;;15.27;60.82
21290;BME280;10804;48.988;2.408;2023-05-24T05:13:21;101634.75;;;15.28;60.85
21290;BME280;10804;48.988;2.408;2023-05-24T05:15:49;101636.56;;;15.26;61.33
21290;BME280;10804;48.988;2.408;2023-05-24T05:18:16;101638.28;;;15.27;60.91
21290;BME280;10804;48.988;2.408;2023-05-24T05:20:43;101631.31;;;15.26;61.04
21290;BME280;10804;48.988;2.408;2023-05-24T05:23:11;101633.16;;;15.24;61.12
21290;BME280;10804;48.988;2.408;2023-05-24T05:25:40;101631.31;;;15.26;61.01
21290;BME280;10804;48.988;2.408;2023-05-24T05:28:07;101633.06;;;15.25;60.85
21290;BME280;10804;48.988;2.408;2023-05-24T05:30:34;101630.44;;;15.25;60.99
21290;BME280;10804;48.988;2.408;2023-05-24T05:33:02;101626.97;;;15.25;60.91
21290;BME280;10804;48.988;2.408;2023-05-24T05:35:30;101637.41;;;15.26;61.04
21290;BME280;10804;48.988;2.408;2023-05-24T05:37:58;101633.03;;;15.27;60.83
21290;BME280;10804;48.988;2.408;2023-05-24T05:40:25;101637.41;;;15.26;60.89
21290;BME280;10804;48.988;2.408;2023-05-24T05:42:54;101633.91;;;15.27;61.01
21290;BME280;10804;48.988;2.408;2023-05-24T05:45:21;101640.03;;;15.26;61.08
21290;BME280;10804;48.988;2.408;2023-05-24T05:47:49;101642.59;;;15.29;60.86
21290;BME280;10804;48.988;2.408;2023-05-24T05:50:17;101638.25;;;15.28;60.79
21290;BME280;10804;48.988;2.408;2023-05-24T05:52:44;101644.31;;;15.30;60.77
21290;BME280;10804;48.988;2.408;2023-05-24T05:55:11;101645.16;;;15.32;60.85
21290;BME280;10804;48.988;2.408;2023-05-24T05:57:39;101662.72;;;15.30;60.82
21290;BME280;10804;48.988;2.408;2023-05-24T06:00:09;101651.31;;;15.31;60.78
21290;BME280;10804;48.988;2.408;2023-05-24T06:02:40;101651.25;;;15.34;60.68
21290;BME280;10804;48.988;2.408;2023-05-24T06:05:08;101652.97;;;15.35;60.76
21290;BME280;10804;48.988;2.408;2023-05-24T06:07:35;101648.47;;;15.39;60.65
21290;BME280;10804;48.988;2.408;2023-05-24T06:10:04;101644.06;;;15.39;60.62
21290;BME280;10804;48.988;2.408;2023-05-24T06:12:31;101652.81;;;15.40;60.67
21290;BME280;10804;48.988;2.408;2023-05-24T06:14:59;101658.00;;;15.41;60.52
21290;BME280;10804;48.988;2.408;2023-05-24T06:17:27;101663.28;;;15.41;60.62
21290;BME280;10804;48.988;2.408;2023-05-24T06:19:55;101664.03;;;15.45;60.50
21290;BME280;10804;48.988;2.408;2023-05-24T06:22:22;101662.28;;;15.45;60.50
21290;BME280;10804;48.988;2.408;2023-05-24T06:24:55;101657.84;;;15.47;60.42
21290;BME280;10804;48.988;2.408;2023-05-24T06:27:26;101659.63;;;15.47;60.45
21290;BME280;10804;48.988;2.408;2023-05-24T06:29:56;101664.88;;;15.47;60.35
21290;BME280;10804;48.988;2.408;2023-05-24T06:32:23;101669.13;;;15.51;60.23
21290;BME280;10804;48.988;2.408;2023-05-24T06:34:52;101666.41;;;15.54;60.27
21290;BME280;10804;48.988;2.408;2023-05-24T06:37:21;101663.78;;;15.54;60.56
21290;BME280;10804;48.988;2.408;2023-05-24T06:39:56;101668.97;;;15.55;60.22
21290;BME280;10804;48.988;2.408;2023-05-24T06:42:26;101671.53;;;15.58;60.15
21290;BME280;10804;48.988;2.408;2023-05-24T06:44:54;101664.44;;;15.60;60.16
21290;BME280;10804;48.988;2.408;2023-05-24T06:47:21;101661.81;;;15.60;60.06
21290;BME280;10804;48.988;2.408;2023-05-24T06:49:49;101659.06;;;15.63;60.15
21290;BME280;10804;48.988;2.408;2023-05-24T06:52:18;101659.81;;;15.68;59.99
21290;BME280;10804;48.988;2.408;2023-05-24T06:54:45;101653.75;;;15.66;60.04
21290;BME280;10804;48.988;2.408;2023-05-24T06:57:13;101652.72;;;15.70;59.92
21290;BME280;10804;48.988;2.408;2023-05-24T06:59:40;101647.31;;;15.74;59.92
21290;BME280;10804;48.988;2.408;2023-05-24T07:02:07;101654.19;;;15.78;59.76
21290;BME280;10804;48.988;2.408;2023-05-24T07:04:35;101654.25;;;15.77;59.83
21290;BME280;10804;48.988;2.408;2023-05-24T07:07:02;101661.97;;;15.81;59.84
21290;BME280;10804;48.988;2.408;2023-05-24T07:09:31;101653.19;;;15.82;59.78
21290;BME280;10804;48.988;2.408;2023-05-24T07:11:59;101661.84;;;15.86;59.79
21290;BME280;10804;48.988;2.408;2023-05-24T07:14:27;101657.34;;;15.89;59.77
21290;BME280;10804;48.988;2.408;2023-05-24T07:16:54;101658.22;;;15.90;59.77
21290;BME280;10804;48.988;2.408;2023-05-24T07:19:24;101659.81;;;15.94;59.72
21290;BME280;10804;48.988;2.408;2023-05-24T07:21:54;101656.19;;;15.98;59.73
21290;BME280;10804;48.988;2.408;2023-05-24T07:24:21;101664.88;;;16.00;59.65
21290;BME280;10804;48.988;2.408;2023-05-24T07:26:51;101665.63;;;16.03;59.62
21290;BME280;10804;48.988;2.408;2023-05-24T07:29:19;101665.53;;;16.06;59.55
21290;BME280;10804;48.988;2.408;2023-05-24T07:31:47;101665.41;;;16.11;59.45
21290;BME280;10804;48.988;2.408;2023-05-24T07:34:14;101663.56;;;16.13;59.43
21290;BME280;10804;48.988;2.408;2023-05-24T07:36:42;101670.44;;;16.17;59.56
21290;BME280;10804;48.988;2.408;2023-05-24T07:39:10;101666.00;;;16.19;59.29
21290;BME280;10804;48.988;2.408;2023-05-24T07:41:40;101678.13;;;16.23;59.42
21290;BME280;10804;48.988;2.408;2023-05-24T07:44:12;101680.69;;;16.26;59.36
21290;BME280;10804;48.988;2.408;2023-05-24T07:46:40;101663.97;;;16.27;59.34
21290;BME280;10804;48.988;2.408;2023-05-24T07:49:07;101684.00;;;16.31;59.35
21290;BME280;10804;48.988;2.408;2023-05-24T07:51:34;101675.03;;;16.36;59.22
21290;BME280;10804;48.988;2.408;2023-05-24T07:54:02;101683.72;;;16.40;59.25
21290;BME280;10804;48.988;2.408;2023-05-24T07:56:29;101670.47;;;16.43;59.16
21290;BME280;10804;48.988;2.408;2023-05-24T07:58:57;101669.50;;;16.45;59.24
21290;BME280;10804;48.988;2.408;2023-05-24T08:01:31;101672.00;;;16.48;59.22
21290;BME280;10804;48.988;2.408;2023-05-24T08:03:59;101676.31;;;16.51;58.99
21290;BME280;10804;48.988;2.408;2023-05-24T08:06:28;101677.00;;;16.56;59.06
21290;BME280;10804;48.988;2.408;2023-05-24T08:08:57;101675.19;;;16.58;59.09
21290;BME280;10804;48.988;2.408;2023-05-24T08:11:24;101678.50;;;16.63;59.23
21290;BME280;10804;48.988;2.408;2023-05-24T08:13:52;101681.06;;;16.66;59.27
21290;BME280;10804;48.988;2.408;2023-05-24T08:16:19;101684.44;;;16.69;59.26
21290;BME280;10804;48.988;2.408;2023-05-24T08:18:48;101675.66;;;16.69;59.35
21290;BME280;10804;48.988;2.408;2023-05-24T08:21:16;101678.25;;;16.70;59.45
21290;BME280;10804;48.988;2.408;2023-05-24T08:23:43;101671.31;;;16.68;59.43
21290;BME280;10804;48.988;2.408;2023-05-24T08:26:11;101686.69;;;16.80;59.58
21290;BME280;10804;48.988;2.408;2023-05-24T08:28:39;101680.44;;;16.82;59.51
21290;BME280;10804;48.988;2.408;2023-05-24T08:31:08;101688.19;;;16.87;59.85
21290;BME280;10804;48.988;2.408;2023-05-24T08:33:37;101689.03;;;16.87;59.74
21290;BME280;10804;48.988;2.408;2023-05-24T08:36:06;101688.06;;;16.90;59.92
21290;BME280;10804;48.988;2.408;2023-05-24T08:38:33;101686.19;;;16.93;60.05
21290;BME280;10804;48.988;2.408;2023-05-24T08:41:04;101681.72;;;16.95;60.11
21290;BME280;10804;48.988;2.408;2023-05-24T08:43:34;101679.88;;;16.97;60.18
21290;BME280;10804;48.988;2.408;2023-05-24T08:46:02;101681.53;;;17.00;60.01
21290;BME280;10804;48.988;2.408;2023-05-24T08:48:30;101677.94;;;17.02;60.08
21290;BME280;10804;48.988;2.408;2023-05-24T08:51:00;101678.72;;;17.04;60.29
21290;BME280;10804;48.988;2.408;2023-05-24T08:53:31;101676.84;;;17.08;60.21
21290;BME280;10804;48.988;2.408;2023-05-24T08:55:59;101677.59;;;17.11;60.30
21290;BME280;10804;48.988;2.408;2023-05-24T08:58:26;101668.72;;;17.14;60.33
21290;BME280;10804;48.988;2.408;2023-05-24T09:00:55;101665.94;;;17.17;60.34
21290;BME280;10804;48.988;2.408;2023-05-24T09:03:23;101668.50;;;17.20;60.50
21290;BME280;10804;48.988;2.408;2023-05-24T09:05:51;101669.28;;;17.22;60.47
21290;BME280;10804;48.988;2.408;2023-05-24T09:08:19;101663.97;;;17.23;60.53
21290;BME280;10804;48.988;2.408;2023-05-24T09:10:48;101667.34;;;17.27;60.54
21290;BME280;10804;48.988;2.408;2023-05-24T09:13:16;101663.78;;;17.28;60.50
21290;BME280;10804;48.988;2.408;2023-05-24T09:15:43;101658.34;;;17.32;60.54
21290;BME280;10804;48.988;2.408;2023-05-24T09:18:11;101653.00;;;17.34;60.57
21290;BME280;10804;48.988;2.408;2023-05-24T09:20:38;101657.25;;;17.38;60.69
21290;BME280;10804;48.988;2.408;2023-05-24T09:23:06;101666.78;;;17.42;60.57
21290;BME280;10804;48.988;2.408;2023-05-24T09:25:33;101664.94;;;17.44;60.59
21290;BME280;10804;48.988;2.408;2023-05-24T09:28:05;101663.06;;;17.47;60.56
21290;BME280;10804;48.988;2.408;2023-05-24T09:30:34;101657.72;;;17.49;60.65
21290;BME280;10804;48.988;2.408;2023-05-24T09:33:02;101658.38;;;17.54;60.72
21290;BME280;10804;48.988;2.408;2023-05-24T09:35:30;101650.41;;;17.55;60.74
21290;BME280;10804;48.988;2.408;2023-05-24T09:37:57;101656.47;;;17.57;60.72
21290;BME280;10804;48.988;2.408;2023-05-24T09:40:29;101657.19;;;17.62;60.51
21290;BME280;10804;48.988;2.408;2023-05-24T09:43:03;101658.84;;;17.65;60.78
21290;BME280;10804;48.988;2.408;2023-05-24T09:45:37;101660.50;;;17.67;60.73
21290;BME280;10804;48.988;2.408;2023-05-24T09:48:09;101650.69;;;17.71;60.66
21290;BME280;10804;48.988;2.408;2023-05-24T09:50:37;101655.81;;;17.74;60.82
21290;BME280;10804;48.988;2.408;2023-05-24T09:53:04;101652.22;;;17.76;60.82
21290;BME280;10804;48.988;2.408;2023-05-24T09:55:35;101651.22;;;17.79;60.81
21290;BME280;10804;48.988;2.408;2023-05-24T09:58:05;101649.38;;;17.81;60.81
21290;BME280;10804;48.988;2.408;2023-05-24T10:00:36;101658.88;;;17.85;60.80
21290;BME280;10804;48.988;2.408;2023-05-24T10:03:05;101651.69;;;17.88;60.83
21290;BME280;10804;48.988;2.408;2023-05-24T10:05:33;101637.66;;;17.88;60.83
21290;BME280;10804;48.988;2.408;2023-05-24T10:08:05;101649.78;;;17.92;60.70
21290;BME280;10804;48.988;2.408;2023-05-24T10:10:34;101641.75;;;17.95;60.93
21290;BME280;10804;48.988;2.408;2023-05-24T10:13:01;101633.66;;;17.99;60.84
21290;BME280;10804;48.988;2.408;2023-05-24T10:15:29;101645.88;;;18.02;60.93
21290;BME280;10804;48.988;2.408;2023-05-24T10:17:57;101633.50;;;18.02;60.84
21290;BME280;10804;48.988;2.408;2023-05-24T10:20:26;101636.81;;;18.07;60.76
21290;BME280;10804;48.988;2.408;2023-05-24T10:22:58;101644.59;;;18.10;60.91
21290;BME280;10804;48.988;2.408;2023-05-24T10:25:27;101638.41;;;18.11;60.78
21290;BME280;10804;48.988;2.408;2023-05-24T10:27:57;101629.50;;;18.14;60.92
21290;BME280;10804;48.988;2.408;2023-05-24T10:30:30;101638.94;;;18.19;60.93
21290;BME280;10804;48.988;2.408;2023-05-24T10:33:04;101637.16;;;18.20;60.83
21290;BME280;10804;48.988;2.408;2023-05-24T10:35:34;101637.84;;;18.25;60.93
21290;BME280;10804;48.988;2.408;2023-05-24T10:38:04;101627.13;;;18.28;60.84
21290;BME280;10804;48.988;2.408;2023-05-24T10:40:32;101630.53;;;18.31;60.81
21290;BME280;10804;48.988;2.408;2023-05-24T10:43:03;101625.09;;;18.34;60.73
21290;BME280;10804;48.988;2.408;2023-05-24T10:45:32;101634.69;;;18.37;60.69
21290;BME280;10804;48.988;2.408;2023-05-24T10:48:30;101624.00;;;18.40;60.82
21290;BME280;10804;48.988;2.408;2023-05-24T10:51:00;101632.72;;;18.42;60.89
21290;BME280;10804;48.988;2.408;2023-05-24T10:53:27;101625.44;;;18.47;60.72
21290;BME280;10804;48.988;2.408;2023-05-24T10:55:55;101627.16;;;18.48;60.80
21290;BME280;10804;48.988;2.408;2023-05-24T10:58:27;101627.03;;;18.51;60.68
21290;BME280;10804;48.988;2.408;2023-05-24T11:01:12;101630.34;;;18.56;60.72
21290;BME280;10804;48.988;2.408;2023-05-24T11:03:41;101621.38;;;18.58;60.72
21290;BME280;10804;48.988;2.408;2023-05-24T11:06:08;101628.31;;;18.61;60.83
21290;BME280;10804;48.988;2.408;2023-05-24T11:08:40;101622.00;;;18.65;60.70
21290;BME280;10804;48.988;2.408;2023-05-24T11:11:09;101624.50;;;18.68;60.72
21290;BME280;10804;48.988;2.408;2023-05-24T11:13:38;101617.44;;;18.68;60.76
21290;BME280;10804;48.988;2.408;2023-05-24T11:16:08;101628.56;;;18.75;60.84
21290;BME280;10804;48.988;2.408;2023-05-24T11:18:36;101627.53;;;18.79;60.65
21290;BME280;10804;48.988;2.408;2023-05-24T11:21:07;101633.53;;;18.82;60.63
21290;BME280;10804;48.988;2.408;2023-05-24T11:23:35;101628.09;;;18.85;60.58
21290;BME280;10804;48.988;2.408;2023-05-24T11:26:02;101635.81;;;18.90;60.76
21290;BME280;10804;48.988;2.408;2023-05-24T11:28:30;101633.03;;;18.93;60.70
21290;BME280;10804;48.988;2.408;2023-05-24T11:31:06;101636.38;;;18.96;60.58
21290;BME280;10804;48.988;2.408;2023-05-24T11:33:39;101633.47;;;19.02;60.48
21290;BME280;10804;48.988;2.408;2023-05-24T11:36:08;101636.84;;;19.06;60.54
21290;BME280;10804;48.988;2.408;2023-05-24T11:38:38;101623.50;;;19.09;60.65
21290;BME280;10804;48.988;2.408;2023-05-24T11:41:06;101614.47;;;19.13;60.64
21290;BME280;10804;48.988;2.408;2023-05-24T11:43:33;101615.13;;;19.18;60.51
21290;BME280;10804;48.988;2.408;2023-05-24T11:46:01;101616.81;;;19.19;60.45
21290;BME280;10804;48.988;2.408;2023-05-24T11:48:29;101618.41;;;19.23;60.51
21290;BME280;10804;48.988;2.408;2023-05-24T11:50:56;101611.13;;;19.28;60.38
21290;BME280;10804;48.988;2.408;2023-05-24T11:53:26;101615.44;;;19.30;60.38
21290;BME280;10804;48.988;2.408;2023-05-24T11:55:53;101620.44;;;19.36;60.36
21290;BME280;10804;48.988;2.408;2023-05-24T11:58:22;101606.13;;;19.40;60.32
21290;BME280;10804;48.988;2.408;2023-05-24T12:00:50;101603.25;;;19.45;60.31
21290;BME280;10804;48.988;2.408;2023-05-24T12:03:17;101600.38;;;19.49;60.14
21290;BME280;10804;48.988;2.408;2023-05-24T12:05:45;101605.44;;;19.54;60.32
21290;BME280;10804;48.988;2.408;2023-05-24T12:08:12;101600.84;;;19.57;60.29
21290;BME280;10804;48.988;2.408;2023-05-24T12:10:42;101598.78;;;19.64;60.40
21290;BME280;10804;48.988;2.408;2023-05-24T12:13:19;101600.28;;;19.69;60.10
21290;BME280;10804;48.988;2.408;2023-05-24T12:15:48;101599.97;;;19.75;60.06
21290;BME280;10804;48.988;2.408;2023-05-24T12:18:19;101598.81;;;19.81;60.07
21290;BME280;10804;48.988;2.408;2023-05-24T12:20:48;101597.72;;;19.85;59.84
21290;BME280;10804;48.988;2.408;2023-05-24T12:23:17;101595.69;;;19.90;59.92
21290;BME280;10804;48.988;2.408;2023-05-24T12:25:46;101587.44;;;19.96;59.82
21290;BME280;10804;48.988;2.408;2023-05-24T12:28:14;101588.91;;;20.01;59.77
21290;BME280;10804;48.988;2.408;2023-05-24T12:30:41;101586.06;;;20.06;59.71
21290;BME280;10804;48.988;2.408;2023-05-24T12:33:10;101585.94;;;20.09;59.70
21290;BME280;10804;48.988;2.408;2023-05-24T12:35:39;101582.88;;;20.16;59.74
21290;BME280;10804;48.988;2.408;2023-05-24T12:38:07;101586.16;;;20.21;59.56
21290;BME280;10804;48.988;2.408;2023-05-24T12:40:35;101571.72;;;20.26;59.45
21290;BME280;10804;48.988;2.408;2023-05-24T12:43:04;101572.34;;;20.31;59.28
21290;BME280;10804;48.988;2.408;2023-05-24T12:45:31;101572.00;;;20.37;59.38
21290;BME280;10804;48.988;2.408;2023-05-24T12:47:59;101564.69;;;20.42;59.13
21290;BME280;10804;48.988;2.408;2023-05-24T12:50:27;101572.25;;;20.50;59.12
21290;BME280;10804;48.988;2.408;2023-05-24T12:52:55;101550.78;;;20.54;59.20
21290;BME280;10804;48.988;2.408;2023-05-24T12:55:24;101560.28;;;20.58;58.96
21290;BME280;10804;48.988;2.408;2023-05-24T12:57:53;101564.31;;;20.65;58.80
21290;BME280;10804;48.988;2.408;2023-05-24T13:00:24;101562.19;;;20.72;58.86